Time;durP1;ratioP1;P1;durP2;ratioP2;P2;SDS_P1;SDS_P2;PMS_P1;PMS_P2;Temp;Humidity;BMP_temperature;BMP_pressure;BME280_temperature;BME280_humidity;BME280_pressure;Samples;Min_cycle;Max_cycle;Signal;HPM_P1;HPM_P2
2022/09/08 00:00:42;;;;;;;27.15;7.30;;;22.50;89.30;;;;;;5039021;28;20032;-63
2022/09/08 00:03:10;;;;;;;30.48;7.80;;;22.50;89.40;;;;;;5042389;28;20028;-63
2022/09/08 00:05:41;;;;;;;21.10;6.45;;;22.50;89.40;;;;;;5039144;28;20043;-63
2022/09/08 00:08:09;;;;;;;26.73;7.10;;;22.50;89.40;;;;;;5039669;28;20029;-63
2022/09/08 00:10:36;;;;;;;24.95;6.68;;;22.50;89.50;;;;;;5039270;28;20028;-64
2022/09/08 00:13:01;;;;;;;20.63;7.32;;;22.50;89.90;;;;;;5038499;28;20102;-64
2022/09/08 00:15:28;;;;;;;21.40;7.05;;;22.50;89.70;;;;;;5039323;28;20036;-64
2022/09/08 00:17:53;;;;;;;25.25;7.32;;;22.50;90.00;;;;;;5038515;28;20053;-64
2022/09/08 00:20:19;;;;;;;20.10;6.38;;;22.40;89.40;;;;;;5037595;28;20033;-64
2022/09/08 00:22:45;;;;;;;20.98;6.43;;;22.40;90.00;;;;;;5038067;28;20171;-63
2022/09/08 00:25:10;;;;;;;18.90;6.57;;;22.40;89.50;;;;;;5042026;28;20025;-63
2022/09/08 00:27:36;;;;;;;15.10;5.93;;;22.40;89.60;;;;;;5039745;28;20060;-63
2022/09/08 00:30:01;;;;;;;15.13;5.53;;;22.40;89.70;;;;;;5024896;28;22123;-63
2022/09/08 00:32:27;;;;;;;13.07;4.55;;;22.40;89.80;;;;;;5037489;28;20497;-63
2022/09/08 00:34:52;;;;;;;15.80;5.88;;;22.30;89.80;;;;;;5038098;28;20043;-63
2022/09/08 00:37:18;;;;;;;19.02;6.05;;;22.30;89.90;;;;;;5037077;28;20051;-63
2022/09/08 00:39:44;;;;;;;18.60;5.68;;;22.30;90.00;;;;;;5038293;28;20084;-63
2022/09/08 00:42:09;;;;;;;17.60;4.80;;;22.30;90.00;;;;;;5037943;28;20122;-63
2022/09/08 00:44:38;;;;;;;21.85;5.90;;;22.30;90.00;;;;;;5042601;28;20382;-64
2022/09/08 00:47:05;;;;;;;17.55;5.75;;;22.30;90.00;;;;;;5038524;28;20025;-64
2022/09/08 00:49:31;;;;;;;13.60;4.85;;;22.30;90.00;;;;;;5039139;28;20083;-64
2022/09/08 00:51:57;;;;;;;15.85;5.70;;;22.30;90.00;;;;;;5007393;28;20306;-63
2022/09/08 00:54:23;;;;;;;11.52;4.57;;;22.20;90.00;;;;;;5038007;28;20108;-63
2022/09/08 00:56:49;;;;;;;12.48;4.47;;;22.20;90.00;;;;;;5022485;28;20128;-64
2022/09/08 00:59:15;;;;;;;9.45;4.53;;;22.20;90.00;;;;;;5018779;28;20029;-64
2022/09/08 01:01:41;;;;;;;10.82;4.60;;;22.20;90.00;;;;;;5022481;28;20501;-64
2022/09/08 01:04:06;;;;;;;12.95;4.50;;;22.20;90.00;;;;;;5021433;28;20036;-64
2022/09/08 01:15:06;;;;;;;10.15;4.72;;;22.10;90.00;;;;;;5024221;28;20578;-64
2022/09/08 01:17:32;;;;;;;14.07;4.93;;;22.10;90.00;;;;;;5040214;28;20033;-64
2022/09/08 01:19:59;;;;;;;13.38;4.68;;;22.10;90.20;;;;;;5039620;28;20380;-64
2022/09/08 01:22:43;;;;;;;9.85;4.43;;;22.10;90.00;;;;;;5037642;28;20045;-63
2022/09/08 01:25:40;;;;;;;11.23;4.57;;;22.10;90.00;;;;;;5038528;28;20045;-64
2022/09/08 01:28:25;;;;;;;12.65;4.03;;;22.00;90.00;;;;;;5039300;28;20114;-65
2022/09/08 01:30:51;;;;;;;14.27;4.63;;;22.00;90.10;;;;;;5009138;28;20496;-63
2022/09/08 01:33:17;;;;;;;10.50;4.60;;;22.10;90.10;;;;;;5040280;28;20429;-64
2022/09/08 01:35:43;;;;;;;12.00;4.38;;;22.00;90.10;;;;;;5039839;28;20750;-63
2022/09/08 01:38:09;;;;;;;10.73;4.13;;;22.00;90.20;;;;;;5038479;28;20021;-63
2022/09/08 01:40:35;;;;;;;13.80;4.57;;;22.00;90.20;;;;;;5020207;28;20109;-64
2022/09/08 01:43:00;;;;;;;13.27;3.95;;;22.00;90.20;;;;;;5037875;28;20060;-64
2022/09/08 01:45:27;;;;;;;8.80;3.67;;;22.00;90.20;;;;;;5036739;28;20167;-63
2022/09/08 01:47:53;;;;;;;11.38;4.47;;;22.00;90.30;;;;;;5037669;28;20079;-64
2022/09/08 01:50:19;;;;;;;10.50;4.32;;;22.00;90.30;;;;;;5038437;28;20033;-64
2022/09/08 01:52:44;;;;;;;16.05;4.60;;;21.90;90.30;;;;;;5027115;28;20033;-63
2022/09/08 01:55:09;;;;;;;7.60;3.78;;;21.90;90.30;;;;;;5042970;28;20109;-64
2022/09/08 01:57:35;;;;;;;10.68;4.38;;;22.00;90.40;;;;;;5041781;28;20037;-64
2022/09/08 02:00:02;;;;;;;8.60;3.95;;;21.90;90.40;;;;;;5040939;28;20389;-64
2022/09/08 02:02:27;;;;;;;6.22;3.33;;;21.90;90.40;;;;;;5043481;28;20017;-63
2022/09/08 02:04:53;;;;;;;9.13;3.80;;;21.90;90.40;;;;;;5042411;28;20033;-64
2022/09/08 02:07:18;;;;;;;9.40;3.88;;;21.90;90.50;;;;;;5043313;28;20385;-64
2022/09/08 02:09:45;;;;;;;9.38;3.47;;;21.90;90.50;;;;;;5037165;28;20333;-63
2022/09/08 02:12:10;;;;;;;8.07;3.38;;;21.90;90.50;;;;;;5038581;28;20055;-64
2022/09/08 02:14:36;;;;;;;10.65;3.28;;;21.90;90.50;;;;;;5024945;28;20041;-63
2022/09/08 02:17:01;;;;;;;12.00;3.60;;;21.90;90.50;;;;;;5039608;28;20037;-64
2022/09/08 02:19:27;;;;;;;14.23;4.15;;;21.90;90.50;;;;;;5040019;28;20065;-63
2022/09/08 02:21:52;;;;;;;6.38;3.20;;;21.80;90.50;;;;;;5041067;28;20086;-64
2022/09/08 02:24:18;;;;;;;6.47;3.78;;;21.80;90.60;;;;;;5040884;28;20138;-64
2022/09/08 02:26:43;;;;;;;5.85;3.33;;;21.80;90.70;;;;;;5041483;28;20511;-63
2022/09/08 02:29:09;;;;;;;8.30;3.20;;;21.80;90.70;;;;;;5036099;28;20096;-63
2022/09/08 02:31:35;;;;;;;9.43;3.33;;;21.70;90.70;;;;;;5024821;28;20029;-64
2022/09/08 02:34:01;;;;;;;4.82;3.13;;;21.80;90.60;;;;;;5022996;28;20492;-66
2022/09/08 02:36:26;;;;;;;10.95;3.17;;;21.70;90.60;;;;;;5041367;28;20652;-64
2022/09/08 02:38:53;;;;;;;5.30;3.03;;;21.70;90.60;;;;;;5039510;28;20036;-63
2022/09/08 02:41:19;;;;;;;8.07;2.80;;;21.70;90.60;;;;;;5043336;28;20036;-64
2022/09/08 02:43:44;;;;;;;4.43;2.53;;;21.70;90.60;;;;;;5039661;28;21081;-63
2022/09/08 02:46:10;;;;;;;7.78;2.72;;;21.70;90.60;;;;;;5044311;28;20116;-63
2022/09/08 02:48:36;;;;;;;7.57;2.70;;;21.70;90.60;;;;;;5024625;28;21880;-63
2022/09/08 02:51:02;;;;;;;6.07;2.95;;;21.60;90.60;;;;;;5024453;28;20052;-63
2022/09/08 02:53:29;;;;;;;7.32;2.83;;;21.60;90.70;;;;;;5040187;28;20106;-64
2022/09/08 02:55:55;;;;;;;4.07;2.42;;;21.60;90.70;;;;;;5023370;28;20041;-64
2022/09/08 02:58:21;;;;;;;6.15;2.70;;;21.60;90.70;;;;;;5039368;28;20078;-63
2022/09/08 03:00:46;;;;;;;8.50;2.45;;;21.60;90.70;;;;;;5038954;28;20495;-64
2022/09/08 03:03:12;;;;;;;8.07;2.42;;;21.60;90.70;;;;;;5040261;28;20033;-64
2022/09/08 03:05:37;;;;;;;3.47;2.30;;;21.50;90.70;;;;;;5040436;28;20468;-64
2022/09/08 03:08:03;;;;;;;6.07;2.30;;;21.60;90.70;;;;;;5040604;28;20029;-64
2022/09/08 03:10:29;;;;;;;6.60;2.50;;;21.60;90.70;;;;;;5042323;28;20033;-63
2022/09/08 03:12:55;;;;;;;4.38;2.03;;;21.50;90.70;;;;;;5042083;28;20062;-63
2022/09/08 03:15:22;;;;;;;5.82;2.35;;;21.50;90.70;;;;;;5024297;28;20025;-63
2022/09/08 03:17:47;;;;;;;4.43;2.33;;;21.50;90.70;;;;;;5038943;28;20032;-63
2022/09/08 03:20:14;;;;;;;6.13;2.00;;;21.40;90.70;;;;;;5024828;28;20053;-64
2022/09/08 03:22:39;;;;;;;4.82;2.25;;;21.50;90.80;;;;;;5034619;28;20025;-64
2022/09/08 03:25:05;;;;;;;6.57;2.20;;;21.50;90.80;;;;;;5038791;28;20529;-63
2022/09/08 03:27:31;;;;;;;6.22;2.08;;;21.40;90.80;;;;;;5041612;28;20040;-63
2022/09/08 03:29:56;;;;;;;4.10;2.17;;;21.40;90.80;;;;;;5040806;28;20051;-64
2022/09/08 03:32:22;;;;;;;7.72;2.13;;;21.40;90.80;;;;;;5041080;28;20067;-63
2022/09/08 03:34:47;;;;;;;3.83;1.90;;;21.40;90.80;;;;;;5024180;28;20040;-63
2022/09/08 03:37:13;;;;;;;3.08;1.70;;;21.40;90.80;;;;;;5024431;28;20037;-64
2022/09/08 03:39:39;;;;;;;4.90;1.95;;;21.40;90.80;;;;;;5024125;28;20032;-63
2022/09/08 03:42:05;;;;;;;4.07;1.80;;;21.40;90.80;;;;;;5038566;28;20037;-63
2022/09/08 03:44:31;;;;;;;5.40;2.25;;;21.40;90.80;;;;;;5023728;28;20045;-63
2022/09/08 03:46:57;;;;;;;4.20;1.92;;;21.30;90.80;;;;;;5041014;28;20106;-64
2022/09/08 03:49:22;;;;;;;4.53;1.67;;;21.30;90.70;;;;;;5038646;28;20516;-64
2022/09/08 03:51:48;;;;;;;7.13;2.03;;;21.30;90.80;;;;;;5041067;28;20037;-63
2022/09/08 03:56:57;;;;;;;5.00;1.70;;;21.30;90.80;;;;;;5039209;28;20078;-64
2022/09/08 03:59:23;;;;;;;3.72;1.80;;;21.30;90.80;;;;;;5039134;28;20424;-63
2022/09/08 04:01:49;;;;;;;3.65;1.73;;;21.30;90.70;;;;;;5039201;28;20017;-63
2022/09/08 04:04:15;;;;;;;3.95;2.17;;;21.30;90.70;;;;;;5040294;28;20028;-64
2022/09/08 04:06:41;;;;;;;3.30;2.38;;;21.30;90.70;;;;;;5038022;28;20614;-63
2022/09/08 04:09:06;;;;;;;3.85;2.40;;;21.30;90.70;;;;;;5038314;28;20047;-64
2022/09/08 04:11:32;;;;;;;5.55;2.17;;;21.30;90.80;;;;;;5037062;28;20094;-64
2022/09/08 04:13:57;;;;;;;5.03;2.13;;;21.30;90.70;;;;;;5021852;28;20052;-63
2022/09/08 04:16:23;;;;;;;5.32;2.03;;;21.30;90.80;;;;;;5042113;28;20064;-64
2022/09/08 04:18:48;;;;;;;3.42;2.20;;;21.10;90.80;;;;;;5023087;28;20067;-64
2022/09/08 04:21:14;;;;;;;4.05;2.13;;;21.20;90.80;;;;;;5022740;28;20119;-64
2022/09/08 04:23:39;;;;;;;7.93;1.95;;;21.20;90.80;;;;;;5040209;28;20025;-64
2022/09/08 04:26:15;;;;;;;2.90;1.67;;;21.20;90.90;;;;;;5005541;28;20350;-65
2022/09/08 04:28:40;;;;;;;3.40;2.00;;;21.20;90.90;;;;;;5040384;28;20049;-64
2022/09/08 04:31:11;;;;;;;2.47;1.88;;;21.20;90.90;;;;;;5035766;28;20040;-64
2022/09/08 04:33:37;;;;;;;3.50;2.13;;;21.10;90.90;;;;;;5022441;28;20029;-63
2022/09/08 04:36:10;;;;;;;4.25;2.10;;;21.10;90.90;;;;;;5041609;28;20092;-65
2022/09/08 04:38:36;;;;;;;6.45;2.03;;;21.10;90.80;;;;;;5023432;28;20045;-63
2022/09/08 04:41:09;;;;;;;2.22;1.80;;;21.10;91.00;;;;;;5040534;28;20392;-64
2022/09/08 04:43:35;;;;;;;3.05;1.88;;;21.10;91.00;;;;;;5037193;28;20045;-64
2022/09/08 04:46:05;;;;;;;4.15;2.33;;;21.10;90.90;;;;;;5039558;28;20086;-63
2022/09/08 04:48:31;;;;;;;1.75;1.63;;;21.00;90.90;;;;;;5038439;28;20469;-64
2022/09/08 04:50:57;;;;;;;2.35;1.40;;;21.10;90.90;;;;;;5040926;28;20045;-63
2022/09/08 04:53:23;;;;;;;2.97;1.70;;;21.10;90.90;;;;;;5006263;28;20044;-64
2022/09/08 04:55:48;;;;;;;6.35;1.85;;;21.00;90.90;;;;;;5038080;28;20840;-64
2022/09/08 04:58:14;;;;;;;6.63;1.73;;;21.00;90.90;;;;;;5038151;28;20025;-64
2022/09/08 05:00:39;;;;;;;3.60;1.77;;;21.00;90.90;;;;;;5023702;28;20032;-64
2022/09/08 05:03:05;;;;;;;3.08;1.45;;;21.00;90.80;;;;;;5036794;28;20098;-63
2022/09/08 05:05:30;;;;;;;6.53;1.90;;;21.00;90.80;;;;;;5029680;28;21191;-65
2022/09/08 05:07:56;;;;;;;3.97;1.40;;;21.00;90.80;;;;;;5033895;28;20064;-64
2022/09/08 05:10:22;;;;;;;5.03;1.60;;;21.00;90.80;;;;;;5040584;28;20133;-63
2022/09/08 05:12:47;;;;;;;8.20;2.08;;;21.00;90.80;;;;;;5037320;28;20392;-65
2022/09/08 05:15:13;;;;;;;3.58;1.63;;;21.00;90.80;;;;;;5029282;28;20033;-64
2022/09/08 05:17:39;;;;;;;5.32;1.60;;;21.00;90.80;;;;;;5026036;28;20663;-63
2022/09/08 05:20:05;;;;;;;5.80;2.03;;;21.00;90.80;;;;;;5027538;28;20022;-64
2022/09/08 05:22:31;;;;;;;23.00;3.60;;;20.90;90.80;;;;;;5012515;28;20033;-64
2022/09/08 05:24:56;;;;;;;44.15;6.15;;;20.90;90.80;;;;;;5016790;28;20091;-63
2022/09/08 05:27:22;;;;;;;34.30;4.20;;;20.90;90.80;;;;;;5032750;28;20165;-64
2022/09/08 05:29:47;;;;;;;29.90;4.20;;;20.90;90.80;;;;;;5035247;28;20041;-63
2022/09/08 05:32:13;;;;;;;41.00;5.07;;;20.90;91.10;;;;;;5032749;28;20118;-65
2022/09/08 05:34:39;;;;;;;38.47;4.57;;;20.90;90.80;;;;;;5036337;28;20173;-64
2022/09/08 05:37:04;;;;;;;33.60;4.38;;;21.00;90.70;;;;;;5034121;28;20202;-63
2022/09/08 05:39:30;;;;;;;35.00;5.03;;;21.00;90.70;;;;;;5032957;28;20729;-64
2022/09/08 05:41:55;;;;;;;51.90;6.43;;;21.00;90.70;;;;;;5032319;28;20824;-63
2022/09/08 05:44:21;;;;;;;36.70;6.22;;;21.00;90.60;;;;;;5029910;28;20053;-63
2022/09/08 05:46:46;;;;;;;69.22;9.05;;;21.00;90.60;;;;;;5032284;28;20059;-63
2022/09/08 05:49:12;;;;;;;86.22;9.60;;;20.90;90.60;;;;;;5003129;28;20500;-64
2022/09/08 05:51:37;;;;;;;57.17;7.75;;;21.00;90.60;;;;;;5035682;28;20033;-65
2022/09/08 05:54:03;;;;;;;80.07;9.45;;;20.90;90.60;;;;;;5032377;28;20393;-68
2022/09/08 05:56:29;;;;;;;82.93;9.88;;;20.90;90.60;;;;;;5032405;28;20037;-64
2022/09/08 05:58:57;;;;;;;62.58;9.30;;;20.90;90.60;;;;;;5034471;28;20457;-63
2022/09/08 06:01:23;;;;;;;55.75;7.75;;;20.90;90.60;;;;;;5027780;28;20417;-63
2022/09/08 06:03:51;;;;;;;61.75;7.50;;;20.90;90.60;;;;;;5030964;28;20052;-64
2022/09/08 06:06:17;;;;;;;44.85;6.47;;;20.90;90.50;;;;;;5022620;28;20238;-64
2022/09/08 06:08:43;;;;;;;71.45;7.82;;;21.00;90.50;;;;;;5025143;28;20044;-64
2022/09/08 06:11:08;;;;;;;44.03;6.97;;;21.00;90.50;;;;;;5011682;28;20041;-64
2022/09/08 06:13:34;;;;;;;51.33;7.22;;;21.00;90.80;;;;;;5026487;28;20507;-64
2022/09/08 06:16:11;;;;;;;47.33;7.70;;;20.80;90.50;;;;;;5032266;28;20044;-64
2022/09/08 06:18:38;;;;;;;43.08;6.90;;;20.90;90.70;;;;;;5017091;28;20378;-64
2022/09/08 06:21:25;;;;;;;56.88;6.97;;;20.80;90.60;;;;;;5032008;28;20022;-64
2022/09/08 06:23:55;;;;;;;58.92;6.43;;;20.80;90.70;;;;;;5034983;28;20409;-64
2022/09/08 06:26:43;;;;;;;52.97;7.28;;;20.80;90.70;;;;;;5015353;28;20212;-64
2022/09/08 06:29:24;;;;;;;40.67;6.03;;;20.80;90.70;;;;;;5027701;28;20582;-64
2022/09/08 06:32:19;;;;;;;98.75;10.32;;;20.80;90.70;;;;;;5030013;28;20028;-63
2022/09/08 06:34:47;;;;;;;38.35;6.47;;;20.80;90.60;;;;;;5030221;28;20040;-64
2022/09/08 06:37:28;;;;;;;43.28;7.15;;;20.80;90.60;;;;;;5017807;28;20115;-64
2022/09/08 06:39:58;;;;;;;42.50;4.75;;;20.80;90.50;;;;;;5011598;28;20104;-64
2022/09/08 06:42:57;;;;;;;41.85;5.78;;;20.80;90.50;;;;;;5012371;28;20044;-64
2022/09/08 06:45:28;;;;;;;162.93;17.40;;;20.80;90.50;;;;;;5022561;28;20356;-63
2022/09/08 06:48:23;;;;;;;58.38;8.25;;;20.80;90.60;;;;;;5004021;28;20037;-63
2022/09/08 06:51:27;;;;;;;39.10;6.25;;;20.70;90.60;;;;;;5019168;28;21169;-63
2022/09/08 06:54:09;;;;;;;32.22;4.93;;;20.70;90.70;;;;;;4993229;28;20060;-64
2022/09/08 06:56:49;;;;;;;55.20;6.05;;;20.70;90.70;;;;;;5020447;28;20319;-66
2022/09/08 06:59:34;;;;;;;46.10;5.90;;;20.70;90.70;;;;;;5016335;28;20520;-65
2022/09/08 07:02:23;;;;;;;43.27;6.23;;;20.80;90.80;;;;;;5014680;28;20536;-63
2022/09/08 07:04:58;;;;;;;44.20;5.80;;;20.70;90.70;;;;;;5019807;28;20040;-64
2022/09/08 07:07:31;;;;;;;59.75;6.40;;;20.70;90.70;;;;;;5018365;28;20089;-64
2022/09/08 07:10:19;;;;;;;51.97;6.55;;;20.70;90.60;;;;;;5021541;28;20052;-64
2022/09/08 07:12:58;;;;;;;54.63;6.93;;;20.80;90.60;;;;;;5027251;28;20423;-63
2022/09/08 07:15:43;;;;;;;42.42;5.68;;;20.80;90.60;;;;;;5029701;28;20032;-63
2022/09/08 07:18:22;;;;;;;116.93;14.68;;;20.80;90.50;;;;;;5031530;28;20726;-63
2022/09/08 07:20:48;;;;;;;85.72;9.52;;;20.80;90.50;;;;;;5030287;28;20032;-64
2022/09/08 07:23:25;;;;;;;62.10;7.85;;;20.80;90.50;;;;;;5009398;28;20028;-64
2022/09/08 07:25:59;;;;;;;61.30;6.68;;;20.80;90.50;;;;;;5011341;28;20029;-63
2022/09/08 07:28:26;;;;;;;60.15;6.55;;;20.80;90.40;;;;;;5027134;28;20029;-64
2022/09/08 07:31:03;;;;;;;51.85;6.70;;;20.80;90.40;;;;;;5009161;28;20056;-64
2022/09/08 07:33:38;;;;;;;69.15;7.25;;;20.80;90.40;;;;;;5002694;28;20126;-65
2022/09/08 07:36:26;;;;;;;78.18;6.75;;;20.80;90.40;;;;;;5012209;28;20044;-64
2022/09/08 07:38:55;;;;;;;40.17;4.97;;;20.80;90.30;;;;;;5007572;28;20041;-64
2022/09/08 07:41:29;;;;;;;39.92;4.70;;;20.80;90.10;;;;;;5007200;28;20308;-64
2022/09/08 07:43:57;;;;;;;46.97;4.95;;;20.80;90.00;;;;;;4986188;28;20056;-67
2022/09/08 07:46:54;;;;;;;59.95;6.03;;;20.80;90.00;;;;;;5015231;28;20140;-64
2022/09/08 07:49:47;;;;;;;26.27;3.72;;;20.80;90.00;;;;;;5027133;28;20034;-66
2022/09/08 07:52:37;;;;;;;53.35;5.88;;;20.80;89.90;;;;;;5024244;28;20041;-63
2022/09/08 07:55:26;;;;;;;42.92;5.70;;;20.80;90.00;;;;;;5010462;28;20114;-64
2022/09/08 07:58:10;;;;;;;59.25;6.50;;;20.70;90.00;;;;;;5010719;28;20146;-65
2022/09/08 08:00:58;;;;;;;52.72;6.10;;;20.70;90.10;;;;;;5023982;28;20267;-63
2022/09/08 08:03:33;;;;;;;44.97;6.82;;;20.70;90.10;;;;;;5015133;28;20021;-63
2022/09/08 08:06:22;;;;;;;74.43;7.78;;;20.70;90.10;;;;;;5025213;28;20102;-63
2022/09/08 08:09:10;;;;;;;60.33;7.82;;;20.70;90.10;;;;;;5008188;28;20048;-64
2022/09/08 08:11:42;;;;;;;79.53;8.30;;;20.80;90.10;;;;;;5009956;28;20029;-64
2022/09/08 08:14:07;;;;;;;80.15;7.35;;;20.70;90.10;;;;;;5004236;28;20032;-63
2022/09/08 08:17:21;;;;;;;58.38;6.85;;;20.70;90.20;;;;;;5028491;28;20029;-63
2022/09/08 08:20:24;;;;;;;69.82;6.60;;;20.70;90.20;;;;;;4984492;28;20124;-63
2022/09/08 08:23:11;;;;;;;72.45;9.05;;;20.70;90.20;;;;;;4973464;28;20042;-64
2022/09/08 08:26:01;;;;;;;70.20;8.73;;;20.70;90.20;;;;;;5011942;28;20045;-63
2022/09/08 08:28:27;;;;;;;78.00;8.77;;;20.70;90.10;;;;;;5011913;28;20108;-64
2022/09/08 08:31:22;;;;;;;308.85;29.77;;;20.80;90.10;;;;;;5021308;28;20044;-63
2022/09/08 08:33:50;;;;;;;115.32;11.68;;;20.80;90.10;;;;;;5008931;28;20583;-63
2022/09/08 08:36:17;;;;;;;85.88;9.00;;;20.80;90.20;;;;;;5004569;28;20041;-64
2022/09/08 08:38:47;;;;;;;101.90;9.68;;;20.80;90.20;;;;;;5005279;28;20041;-61
2022/09/08 08:41:27;;;;;;;90.05;8.60;;;20.80;90.30;;;;;;5017285;28;20053;-64
2022/09/08 08:44:12;;;;;;;59.97;7.85;;;20.80;90.20;;;;;;5021852;28;20158;-63
2022/09/08 08:46:46;;;;;;;74.00;8.32;;;20.80;90.30;;;;;;5016251;28;20397;-63
2022/09/08 08:49:36;;;;;;;85.55;8.65;;;20.80;90.30;;;;;;5021682;28;20018;-63
2022/09/08 08:52:32;;;;;;;67.53;7.78;;;20.80;90.30;;;;;;5026465;28;20100;-62
2022/09/08 08:55:10;;;;;;;103.93;11.32;;;20.80;90.20;;;;;;5020270;28;20017;-63
2022/09/08 08:58:07;;;;;;;105.80;10.80;;;20.80;90.10;;;;;;5021169;28;20099;-63
2022/09/08 09:00:39;;;;;;;60.45;7.03;;;20.90;90.10;;;;;;5033890;28;20025;-62
2022/09/08 09:03:34;;;;;;;53.78;7.45;;;20.60;89.80;;;;;;5010291;28;20064;-63
2022/09/08 09:06:15;;;;;;;89.60;8.95;;;20.90;89.70;;;;;;5012264;28;20021;-64
2022/09/08 09:09:03;;;;;;;67.25;8.82;;;20.90;89.80;;;;;;5024287;28;20680;-63
2022/09/08 09:12:07;;;;;;;54.13;7.47;;;20.90;89.30;;;;;;5024566;28;20045;-63
2022/09/08 09:15:07;;;;;;;53.67;5.95;;;20.90;89.20;;;;;;5014779;28;20021;-63
2022/09/08 09:17:49;;;;;;;42.92;5.88;;;20.90;89.00;;;;;;5029883;28;20065;-62
2022/09/08 09:20:34;;;;;;;57.13;6.07;;;20.90;88.70;;;;;;5021396;28;20485;-63
2022/09/08 09:23:13;;;;;;;51.90;5.70;;;20.90;88.50;;;;;;4994713;28;20553;-63
2022/09/08 09:25:58;;;;;;;43.13;6.45;;;20.90;88.30;;;;;;5021951;28;20029;-63
2022/09/08 09:28:27;;;;;;;37.08;5.05;;;20.90;88.10;;;;;;5016081;28;20086;-63
2022/09/08 09:31:06;;;;;;;34.85;5.63;;;20.90;88.00;;;;;;5030305;28;20115;-63
2022/09/08 09:33:51;;;;;;;51.33;5.65;;;20.90;87.60;;;;;;5020053;28;20102;-62
2022/09/08 09:36:35;;;;;;;75.25;7.75;;;20.90;87.40;;;;;;5007365;28;20048;-64
2022/09/08 09:39:22;;;;;;;71.65;6.35;;;21.00;87.30;;;;;;5023304;28;20066;-62
2022/09/08 09:41:51;;;;;;;45.83;6.63;;;21.00;87.00;;;;;;5030159;28;20091;-63
2022/09/08 09:44:23;;;;;;;59.58;6.50;;;21.00;86.70;;;;;;5021322;28;20416;-63
2022/09/08 09:47:01;;;;;;;56.35;6.38;;;21.00;86.50;;;;;;5022870;28;20037;-64
2022/09/08 09:49:38;;;;;;;57.80;6.70;;;21.10;86.30;;;;;;5023070;28;20029;-63
2022/09/08 09:52:25;;;;;;;61.15;6.68;;;21.10;86.30;;;;;;5029229;28;20178;-64
2022/09/08 09:55:13;;;;;;;56.25;7.13;;;21.10;86.30;;;;;;5028399;28;20032;-63
2022/09/08 09:57:44;;;;;;;51.33;7.25;;;21.10;86.20;;;;;;5027567;28;20025;-63
2022/09/08 10:00:13;;;;;;;76.47;9.18;;;21.10;86.20;;;;;;5020403;28;20033;-63
2022/09/08 10:03:08;;;;;;;60.90;8.20;;;21.20;86.10;;;;;;5026134;28;20029;-62
2022/09/08 10:06:06;;;;;;;65.43;8.57;;;21.20;85.90;;;;;;5032634;28;20126;-62
2022/09/08 10:09:26;;;;;;;75.53;8.40;;;21.20;85.50;;;;;;5011798;28;20036;-63
2022/09/08 10:12:16;;;;;;;87.68;10.15;;;21.30;85.20;;;;;;4983325;28;20041;-63
2022/09/08 10:15:29;;;;;;;110.13;11.45;;;21.30;85.40;;;;;;5040119;28;20029;-62
2022/09/08 10:18:30;;;;;;;63.05;7.32;;;21.30;85.00;;;;;;5025450;28;20063;-63
2022/09/08 10:21:23;;;;;;;104.80;10.15;;;21.40;84.50;;;;;;5030367;28;20036;-63
2022/09/08 10:24:07;;;;;;;95.75;12.07;;;21.40;84.00;;;;;;5022674;28;20043;-63
2022/09/08 10:26:37;;;;;;;65.68;7.75;;;21.40;83.80;;;;;;5018676;28;20029;-62
2022/09/08 10:29:20;;;;;;;94.03;9.05;;;21.40;83.30;;;;;;5003519;28;20037;-63
2022/09/08 10:32:13;;;;;;;105.80;12.05;;;21.40;82.80;;;;;;5024850;28;20033;-63
2022/09/08 10:35:16;;;;;;;126.93;15.70;;;21.40;83.00;;;;;;5027703;28;20033;-62
2022/09/08 10:38:09;;;;;;;120.03;13.38;;;21.40;82.90;;;;;;5018034;28;20045;-63
2022/09/08 10:40:52;;;;;;;112.28;12.13;;;21.40;82.90;;;;;;5027836;28;20199;-64
2022/09/08 10:43:37;;;;;;;84.68;11.25;;;21.50;82.70;;;;;;5009071;28;20049;-63
2022/09/08 10:46:21;;;;;;;112.40;13.52;;;21.50;82.50;;;;;;5010698;28;20069;-63
2022/09/08 10:48:58;;;;;;;69.40;10.80;;;21.50;82.30;;;;;;5019221;28;20485;-63
2022/09/08 10:51:35;;;;;;;73.28;10.57;;;21.60;82.20;;;;;;5025030;28;20052;-63
2022/09/08 10:54:18;;;;;;;72.43;8.00;;;21.70;81.80;;;;;;5022215;28;20022;-63
2022/09/08 10:56:45;;;;;;;98.97;11.02;;;21.60;81.30;;;;;;5014114;28;20075;-63
2022/09/08 10:59:34;;;;;;;104.47;10.20;;;21.70;81.10;;;;;;5020411;28;20159;-62
2022/09/08 11:02:22;;;;;;;72.03;10.43;;;21.70;80.80;;;;;;5024826;28;20038;-62
2022/09/08 11:05:23;;;;;;;97.72;11.15;;;21.70;80.90;;;;;;5024191;28;20152;-63
2022/09/08 11:08:02;;;;;;;106.13;11.52;;;21.80;80.60;;;;;;5011371;28;20476;-63
2022/09/08 11:10:56;;;;;;;73.63;8.65;;;21.80;80.40;;;;;;5029048;28;20082;-63
2022/09/08 11:13:25;;;;;;;116.95;12.50;;;21.90;79.60;;;;;;4988964;28;20640;-63
2022/09/08 11:16:12;;;;;;;69.75;7.90;;;21.90;79.40;;;;;;5029956;28;20738;-62
2022/09/08 11:18:43;;;;;;;55.15;8.40;;;21.90;79.70;;;;;;5024901;28;20099;-62
2022/09/08 11:21:28;;;;;;;90.15;9.63;;;22.00;79.60;;;;;;5028565;28;20139;-63
2022/09/08 11:24:18;;;;;;;78.45;9.00;;;22.00;78.90;;;;;;5003002;28;20033;-62
2022/09/08 11:27:05;;;;;;;56.97;7.32;;;21.90;79.00;;;;;;5019108;28;20071;-62
2022/09/08 11:29:35;;;;;;;63.67;7.65;;;21.90;78.70;;;;;;5020075;28;20025;-62
2022/09/08 11:32:40;;;;;;;81.85;7.90;;;22.00;78.60;;;;;;5021990;28;20025;-62
2022/09/08 11:35:32;;;;;;;84.15;9.35;;;22.00;78.40;;;;;;5027658;28;20016;-63
2022/09/08 11:38:17;;;;;;;74.05;7.93;;;22.10;78.80;;;;;;5019834;28;20033;-63
2022/09/08 11:40:56;;;;;;;80.32;7.55;;;22.10;78.60;;;;;;5021901;28;20518;-62
2022/09/08 11:44:08;;;;;;;60.80;6.68;;;22.20;78.40;;;;;;4985793;28;20072;-63
2022/09/08 11:46:43;;;;;;;67.72;7.45;;;22.10;77.60;;;;;;5020026;28;20041;-63
2022/09/08 11:49:36;;;;;;;67.43;6.82;;;22.20;77.50;;;;;;5023870;28;20397;-63
2022/09/08 11:52:23;;;;;;;56.83;6.72;;;22.20;76.80;;;;;;5024408;28;20032;-63
2022/09/08 11:55:25;;;;;;;61.00;6.38;;;22.30;76.10;;;;;;5024829;28;20421;-63
2022/09/08 11:58:25;;;;;;;69.18;8.15;;;22.30;75.90;;;;;;5019577;28;20106;-63
2022/09/08 12:01:26;;;;;;;53.05;6.47;;;22.40;75.50;;;;;;5019698;28;20037;-63
2022/09/08 12:04:06;;;;;;;46.80;6.68;;;22.30;75.40;;;;;;4993273;28;20072;-63
2022/09/08 12:06:56;;;;;;;55.28;5.80;;;22.50;74.90;;;;;;5012602;28;20040;-63
2022/09/08 12:09:31;;;;;;;89.25;9.75;;;22.60;74.50;;;;;;5012907;28;20037;-63
2022/09/08 12:12:33;;;;;;;66.15;7.40;;;22.60;73.90;;;;;;5007749;28;20037;-63
2022/09/08 12:15:19;;;;;;;60.45;6.95;;;22.70;73.50;;;;;;5019558;28;20036;-63
2022/09/08 12:17:58;;;;;;;46.42;6.38;;;22.70;73.60;;;;;;4998300;28;20080;-63
2022/09/08 12:20:46;;;;;;;66.68;6.47;;;22.80;73.20;;;;;;5022029;28;20029;-63
2022/09/08 12:23:37;;;;;;;70.40;7.85;;;22.80;73.00;;;;;;5028513;28;20033;-63
2022/09/08 12:26:08;;;;;;;57.83;7.47;;;22.90;72.20;;;;;;5017901;28;20061;-64
2022/09/08 12:28:55;;;;;;;50.72;6.00;;;23.00;71.60;;;;;;5021413;28;21143;-63
2022/09/08 12:31:30;;;;;;;56.80;6.63;;;23.00;71.80;;;;;;5025288;28;20053;-63
2022/09/08 12:34:24;;;;;;;26.52;4.07;;;23.10;72.70;;;;;;5006511;28;20033;-63
2022/09/08 12:36:50;;;;;;;41.45;5.40;;;23.10;73.50;;;;;;5027179;28;20032;-63
2022/09/08 12:39:42;;;;;;;45.30;5.18;;;23.10;73.80;;;;;;5029133;28;20029;-63
2022/09/08 12:42:32;;;;;;;41.65;5.22;;;23.10;74.40;;;;;;5026074;28;20096;-63
2022/09/08 12:45:22;;;;;;;50.00;4.80;;;23.10;74.40;;;;;;5024097;28;20045;-63
2022/09/08 12:48:03;;;;;;;32.67;4.00;;;23.20;74.70;;;;;;5015692;28;20029;-63
2022/09/08 12:50:44;;;;;;;39.53;5.55;;;23.30;74.80;;;;;;5025227;28;20032;-63
2022/09/08 12:53:29;;;;;;;31.63;4.50;;;23.30;75.30;;;;;;5026123;28;20389;-64
2022/09/08 12:55:57;;;;;;;39.40;5.20;;;23.30;75.50;;;;;;5019194;28;20037;-63
2022/09/08 12:58:24;;;;;;;33.35;4.55;;;23.30;75.50;;;;;;5006414;28;20049;-63
2022/09/08 13:01:40;;;;;;;49.90;5.90;;;23.40;75.60;;;;;;5024323;28;20025;-63
2022/09/08 13:04:35;;;;;;;34.78;5.15;;;23.40;75.30;;;;;;4998263;28;20086;-63
2022/09/08 13:07:35;;;;;;;60.25;6.75;;;23.50;75.40;;;;;;5004683;28;20135;-63
2022/09/08 13:10:09;;;;;;;61.08;6.72;;;23.60;75.40;;;;;;5018601;28;20037;-64
2022/09/08 13:13:26;;;;;;;50.13;6.93;;;23.70;75.00;;;;;;5022909;28;20094;-64
2022/09/08 13:16:01;;;;;;;50.28;6.13;;;23.70;75.10;;;;;;5026835;28;20057;-63
2022/09/08 13:18:39;;;;;;;56.67;6.47;;;23.80;75.10;;;;;;5024288;28;20044;-63
2022/09/08 13:21:26;;;;;;;54.03;7.00;;;23.80;74.70;;;;;;5017304;28;20480;-63
2022/09/08 13:23:53;;;;;;;58.80;7.35;;;23.90;74.60;;;;;;5009960;28;20036;-64
2022/09/08 13:26:32;;;;;;;53.22;7.18;;;24.00;74.60;;;;;;5021054;28;20099;-63
2022/09/08 13:29:20;;;;;;;53.08;6.88;;;24.00;74.40;;;;;;5019584;28;20025;-64
2022/09/08 13:32:11;;;;;;;65.82;6.68;;;24.10;74.30;;;;;;5023676;28;20110;-63